Terminal Aerodrome Forecast
Issued by NWS Shreveport, LA

Home | Current Version | Previous Version | Text Only | Print | Product List | Glossary On
Versions: 1 2 3 4 5 6 7 8 9 10 11 12 13 14 15 16 17
000
FTUS44 KSHV 252323
TAFELD
TAF
KELD 252323Z 2600/2624 17012KT P6SM VCTS BKN040CB OVC060
     FM260200 16010KT 5SM TSRA BR OVC035CB
     FM260900 17008KT 5SM -SHRA VCTS OVC020CB
     FM261500 19010KT P6SM BKN025
     FM261800 22010KT P6SM SCT035=

USA.gov is the U.S. government's official web portal to all federal, state and local government web resources and services.